Time;durP1;ratioP1;P1;durP2;ratioP2;P2;SDS_P1;SDS_P2;PMS_P1;PMS_P2;Temp;Humidity;BMP_temperature;BMP_pressure;BME280_temperature;BME280_humidity;BME280_pressure;Samples;Min_cycle;Max_cycle;Signal;HPM_P1;HPM_P2
2023/01/21 00:00:43;;;;;;;12.63;7.13;;;;;;;;;;6147878;23;20050;-46
2023/01/21 00:03:24;;;;;;;10.80;7.13;;;;;;;;;;6146830;23;20022;-48
2023/01/21 00:05:52;;;;;;;8.63;6.03;;;;;;;;;;6146362;23;20026;-47
2023/01/21 00:08:26;;;;;;;11.93;6.65;;;;;;;;;;6147630;23;20068;-48
2023/01/21 00:10:53;;;;;;;10.82;6.95;;;;;;;;;;6146624;23;20026;-46
2023/01/21 00:13:28;;;;;;;10.45;7.38;;;;;;;;;;6146581;23;20460;-46
2023/01/21 00:15:55;;;;;;;12.35;6.65;;;;;;;;;;6147027;23;20112;-57
2023/01/21 00:18:22;;;;;;;11.05;6.88;;;;;;;;;;6147011;23;20092;-53
2023/01/21 00:20:56;;;;;;;11.25;8.00;;;;;;;;;;6146947;23;20053;-57
2023/01/21 00:23:23;;;;;;;11.80;7.78;;;;;;;;;;6121874;23;20057;-59
2023/01/21 00:26:01;;;;;;;14.10;8.55;;;;;;;;;;6147042;23;20068;-55
2023/01/21 00:28:29;;;;;;;13.55;7.88;;;;;;;;;;6146656;23;20104;-57
2023/01/21 00:30:58;;;;;;;12.23;7.95;;;;;;;;;;6147884;23;20105;-58
2023/01/21 00:33:32;;;;;;;12.85;8.55;;;;;;;;;;6124153;23;20064;-58
2023/01/21 00:36:01;;;;;;;11.38;7.32;;;;;;;;;;6120953;23;20343;-47
2023/01/21 00:38:28;;;;;;;10.35;7.40;;;;;;;;;;6147871;23;20021;-56
2023/01/21 00:41:04;;;;;;;12.15;6.88;;;;;;;;;;6147411;23;20018;-57
2023/01/21 00:43:31;;;;;;;12.40;7.32;;;;;;;;;;6147543;23;20563;-57
2023/01/21 00:46:05;;;;;;;11.10;7.30;;;;;;;;;;6147507;23;20480;-56
2023/01/21 00:48:33;;;;;;;11.75;7.57;;;;;;;;;;6147203;23;20096;-54
2023/01/21 00:51:00;;;;;;;12.27;7.47;;;;;;;;;;6146533;23;20052;-56
2023/01/21 00:53:35;;;;;;;12.50;7.22;;;;;;;;;;6148487;23;20022;-61
2023/01/21 00:56:04;;;;;;;12.48;7.65;;;;;;;;;;6147034;23;20105;-55
2023/01/21 00:58:45;;;;;;;12.35;7.38;;;;;;;;;;6145987;23;20060;-55
2023/01/21 01:01:19;;;;;;;11.38;6.55;;;;;;;;;;6118518;23;20065;-56
2023/01/21 01:03:53;;;;;;;10.30;6.75;;;;;;;;;;6117570;23;20026;-56
2023/01/21 01:06:21;;;;;;;10.25;6.95;;;;;;;;;;6117792;23;20100;-56
2023/01/21 01:08:49;;;;;;;10.00;7.25;;;;;;;;;;6118946;23;20101;-56
2023/01/21 01:11:24;;;;;;;11.60;7.03;;;;;;;;;;6117913;23;20105;-46
2023/01/21 01:13:52;;;;;;;15.35;9.30;;;;;;;;;;6118256;23;20108;-66
2023/01/21 01:16:26;;;;;;;14.13;8.10;;;;;;;;;;6119456;23;20504;-67
2023/01/21 01:18:53;;;;;;;15.68;8.68;;;;;;;;;;6120392;23;20472;-67
2023/01/21 01:21:21;;;;;;;12.23;7.97;;;;;;;;;;6120082;23;20026;-67
2023/01/21 01:23:59;;;;;;;14.35;8.57;;;;;;;;;;6119563;23;20472;-66
2023/01/21 01:26:26;;;;;;;11.65;7.55;;;;;;;;;;6119105;23;20085;-67
2023/01/21 01:29:01;;;;;;;12.07;7.93;;;;;;;;;;6120010;23;20022;-67
2023/01/21 01:31:28;;;;;;;;;;;;;;;;;;6120481;23;20101;-61
2023/01/21 01:33:56;;;;;;;12.15;8.07;;;;;;;;;;6119658;23;19924;-57
2023/01/21 01:36:30;;;;;;;13.40;9.13;;;;;;;;;;6121074;23;20046;-55
2023/01/21 01:38:57;;;;;;;11.35;7.65;;;;;;;;;;6093621;23;20049;-52
2023/01/21 01:41:34;;;;;;;15.38;7.60;;;;;;;;;;6119486;23;20113;-51
2023/01/21 01:44:05;;;;;;;12.23;8.15;;;;;;;;;;6117588;23;20565;-54
2023/01/21 01:46:39;;;;;;;12.90;8.13;;;;;;;;;;6118630;23;20018;-53
2023/01/21 01:49:20;;;;;;;11.93;6.85;;;;;;;;;;6116904;23;20030;-58
2023/01/21 01:51:55;;;;;;;11.80;7.20;;;;;;;;;;6120143;23;20026;-61
2023/01/21 01:54:24;;;;;;;11.45;7.53;;;;;;;;;;6119554;23;20105;-61
2023/01/21 01:56:59;;;;;;;12.98;7.85;;;;;;;;;;6119682;23;20053;-60
2023/01/21 01:59:33;;;;;;;9.52;6.97;;;;;;;;;;6129056;23;20036;-61
2023/01/21 02:02:09;;;;;;;10.98;7.57;;;;;;;;;;6148057;23;20535;-60
2023/01/21 02:04:41;;;;;;;11.85;7.63;;;;;;;;;;6146780;23;20422;-60
2023/01/21 02:07:16;;;;;;;16.10;7.63;;;;;;;;;;6148333;23;20489;-61
2023/01/21 02:09:43;;;;;;;12.88;8.40;;;;;;;;;;6149193;23;20057;-61
2023/01/21 02:12:11;;;;;;;10.93;7.63;;;;;;;;;;6147791;23;20057;-61
2023/01/21 02:14:46;;;;;;;10.63;7.57;;;;;;;;;;6148806;23;20052;-60
2023/01/21 02:17:25;;;;;;;10.73;7.13;;;;;;;;;;6148132;23;20017;-61
2023/01/21 02:20:02;;;;;;;11.60;8.02;;;;;;;;;;6147745;23;20026;-61
2023/01/21 02:22:47;;;;;;;11.55;7.68;;;;;;;;;;6148872;23;20053;-61
2023/01/21 02:25:22;;;;;;;12.70;8.27;;;;;;;;;;6148566;23;20092;-55
2023/01/21 02:27:53;;;;;;;11.82;7.75;;;;;;;;;;6148785;23;20518;-61
2023/01/21 02:30:26;;;;;;;12.85;8.10;;;;;;;;;;6148681;23;20105;-61
2023/01/21 02:33:00;;;;;;;12.68;8.05;;;;;;;;;;6149193;23;20036;-60
2023/01/21 02:35:47;;;;;;;12.68;8.40;;;;;;;;;;6123297;23;20060;-61
2023/01/21 02:38:34;;;;;;;12.55;8.10;;;;;;;;;;6094561;23;20028;-61
2023/01/21 02:41:05;;;;;;;14.95;8.85;;;;;;;;;;6147608;23;20550;-61
2023/01/21 02:43:56;;;;;;;13.32;8.40;;;;;;;;;;6148635;23;20092;-57
2023/01/21 02:46:27;;;;;;;11.85;9.10;;;;;;;;;;6148132;23;20045;-50
2023/01/21 02:49:06;;;;;;;13.50;8.95;;;;;;;;;;6148782;23;20028;-54
2023/01/21 02:51:34;;;;;;;15.35;9.32;;;;;;;;;;6147397;23;20631;-55
2023/01/21 02:54:15;;;;;;;14.05;9.35;;;;;;;;;;6147356;23;20534;-52
2023/01/21 02:56:43;;;;;;;15.40;8.77;;;;;;;;;;6147717;23;20096;-56
2023/01/21 02:59:29;;;;;;;12.65;8.63;;;;;;;;;;6147790;23;20032;-55
2023/01/21 03:02:04;;;;;;;13.70;8.80;;;;;;;;;;6148524;23;20025;-61
2023/01/21 03:04:38;;;;;;;14.73;8.80;;;;;;;;;;6148200;23;20033;-61
2023/01/21 03:07:05;;;;;;;13.52;9.20;;;;;;;;;;6147576;23;20061;-61
2023/01/21 03:09:39;;;;;;;18.23;9.50;;;;;;;;;;6148111;23;20554;-60
2023/01/21 03:12:07;;;;;;;13.25;9.18;;;;;;;;;;6148070;23;20125;-61
2023/01/21 03:17:35;;;;;;;15.55;9.20;;;;;;;;;;6145475;23;20320;-60
2023/01/21 03:20:19;;;;;;;13.55;9.60;;;;;;;;;;6147564;23;20104;-52
2023/01/21 03:22:57;;;;;;;18.85;9.63;;;;;;;;;;6148550;23;20351;-56
2023/01/21 03:25:25;;;;;;;13.05;9.10;;;;;;;;;;6146778;23;20128;-58
2023/01/21 03:28:00;;;;;;;13.60;9.35;;;;;;;;;;6149059;23;20100;-55
2023/01/21 03:30:28;;;;;;;17.00;10.45;;;;;;;;;;6147410;23;20100;-58
2023/01/21 03:33:02;;;;;;;17.67;11.25;;;;;;;;;;6147307;23;20056;-58
2023/01/21 03:35:32;;;;;;;21.15;12.95;;;;;;;;;;6147909;23;20037;-56
2023/01/21 03:38:12;;;;;;;20.63;12.85;;;;;;;;;;6148581;23;20100;-60
2023/01/21 03:40:50;;;;;;;22.00;12.90;;;;;;;;;;6147407;23;20029;-78
2023/01/21 03:43:17;;;;;;;20.08;13.13;;;;;;;;;;6149067;23;20101;-70
2023/01/21 03:46:07;;;;;;;20.52;12.52;;;;;;;;;;6146999;23;20576;-67
2023/01/21 03:48:43;;;;;;;21.25;12.38;;;;;;;;;;6140239;23;20355;-67
2023/01/21 03:51:16;;;;;;;19.27;12.30;;;;;;;;;;6148218;23;20021;-67
2023/01/21 03:53:56;;;;;;;21.83;12.20;;;;;;;;;;6148011;23;20100;-67
2023/01/21 03:56:24;;;;;;;19.90;11.85;;;;;;;;;;6147479;23;20084;-46
2023/01/21 03:59:10;;;;;;;21.75;12.60;;;;;;;;;;6147118;23;20021;-49
2023/01/21 04:01:45;;;;;;;21.33;12.77;;;;;;;;;;6147404;23;20040;-67
2023/01/21 04:04:19;;;;;;;22.17;12.25;;;;;;;;;;6147172;23;20360;-67
2023/01/21 04:06:46;;;;;;;20.05;11.52;;;;;;;;;;6147452;23;20129;-67
2023/01/21 04:09:13;;;;;;;22.95;11.73;;;;;;;;;;6147104;23;20096;-67
2023/01/21 04:11:47;;;;;;;21.48;10.93;;;;;;;;;;6147285;23;20925;-67
2023/01/21 04:14:14;;;;;;;19.05;11.35;;;;;;;;;;6148048;23;20371;-67
2023/01/21 04:16:48;;;;;;;18.75;11.05;;;;;;;;;;6146096;23;20092;-50
2023/01/21 04:19:15;;;;;;;20.33;11.15;;;;;;;;;;6147871;23;20124;-74
2023/01/21 04:21:42;;;;;;;22.33;11.80;;;;;;;;;;6146322;23;20371;-77
2023/01/21 04:24:16;;;;;;;16.63;9.45;;;;;;;;;;6146121;23;20036;-76
2023/01/21 04:26:43;;;;;;;19.75;10.40;;;;;;;;;;6147130;23;20157;-75
2023/01/21 04:29:17;;;;;;;19.90;10.80;;;;;;;;;;6147827;23;20028;-76
2023/01/21 04:31:44;;;;;;;;;;;;;;;;;;6147816;23;20029;-77
2023/01/21 04:34:11;;;;;;;23.33;12.27;;;;;;;;;;6149278;23;19920;-49
2023/01/21 04:36:46;;;;;;;29.13;13.82;;;;;;;;;;6146692;23;20599;-60
2023/01/21 04:39:13;;;;;;;26.20;13.50;;;;;;;;;;6148507;23;20097;-60
2023/01/21 04:41:47;;;;;;;26.42;13.45;;;;;;;;;;6147028;23;20035;-60
2023/01/21 04:44:14;;;;;;;29.10;14.38;;;;;;;;;;6147481;23;20057;-60
2023/01/21 04:46:41;;;;;;;31.20;15.23;;;;;;;;;;6146927;23;20060;-60
2023/01/21 04:49:15;;;;;;;33.03;15.88;;;;;;;;;;6150878;23;20096;-60
2023/01/21 04:51:42;;;;;;;33.95;15.65;;;;;;;;;;6148792;23;20025;-70
2023/01/21 04:54:16;;;;;;;33.55;16.58;;;;;;;;;;6149569;23;20057;-54
2023/01/21 04:56:43;;;;;;;32.35;16.70;;;;;;;;;;6150045;23;20104;-78
2023/01/21 04:59:10;;;;;;;29.95;16.20;;;;;;;;;;6149307;23;20025;-78
2023/01/21 05:01:50;;;;;;;29.42;15.35;;;;;;;;;;6149253;23;20076;-80
2023/01/21 05:04:18;;;;;;;33.85;15.80;;;;;;;;;;6150435;23;20017;-76
2023/01/21 05:06:52;;;;;;;29.50;15.15;;;;;;;;;;6148354;23;20100;-80
2023/01/21 05:09:26;;;;;;;29.88;15.82;;;;;;;;;;6149570;23;20021;-79
2023/01/21 05:12:06;;;;;;;29.05;14.07;;;;;;;;;;6149475;23;20629;-59
2023/01/21 05:14:34;;;;;;;30.50;14.57;;;;;;;;;;6148701;23;20202;-76
2023/01/21 05:17:08;;;;;;;35.15;16.33;;;;;;;;;;6148805;23;20475;-75
2023/01/21 05:19:35;;;;;;;32.33;15.15;;;;;;;;;;6149798;23;20032;-74
2023/01/21 05:22:02;;;;;;;28.48;13.98;;;;;;;;;;6123188;23;20145;-74
2023/01/21 05:24:36;;;;;;;31.75;14.73;;;;;;;;;;6149155;23;20064;-74
2023/01/21 05:27:03;;;;;;;26.02;12.70;;;;;;;;;;6149470;23;20538;-76
2023/01/21 05:29:37;;;;;;;29.92;14.27;;;;;;;;;;6148250;23;20029;-67
2023/01/21 05:32:04;;;;;;;32.75;14.63;;;;;;;;;;6148868;23;20021;-50
2023/01/21 05:34:31;;;;;;;31.98;14.73;;;;;;;;;;6149880;23;20096;-50
2023/01/21 05:37:06;;;;;;;32.83;14.88;;;;;;;;;;6148964;23;20026;-53
2023/01/21 05:39:33;;;;;;;35.88;15.52;;;;;;;;;;6148216;23;20423;-53
2023/01/21 05:42:07;;;;;;;35.95;16.38;;;;;;;;;;6146276;23;20112;-52
2023/01/21 05:44:34;;;;;;;30.80;15.77;;;;;;;;;;6148723;23;20024;-51
2023/01/21 05:47:01;;;;;;;31.45;14.57;;;;;;;;;;6148366;23;20112;-59
2023/01/21 05:49:35;;;;;;;26.20;13.23;;;;;;;;;;6149030;23;20096;-46
2023/01/21 05:52:02;;;;;;;26.42;13.82;;;;;;;;;;6147364;23;20032;-47
2023/01/21 05:54:36;;;;;;;26.23;13.73;;;;;;;;;;6148957;23;20109;-50
2023/01/21 05:57:03;;;;;;;;;;;;;;;;;;6149440;23;20017;-47
2023/01/21 05:59:30;;;;;;;31.40;13.07;;;;;;;;;;6148464;23;20783;-46
2023/01/21 06:02:11;;;;;;;34.72;15.43;;;;;;;;;;6147363;23;20022;-47
2023/01/21 06:04:39;;;;;;;24.48;13.20;;;;;;;;;;6149125;23;20060;-50
2023/01/21 06:07:13;;;;;;;28.40;13.50;;;;;;;;;;6149473;23;20491;-54
2023/01/21 06:09:40;;;;;;;35.60;14.23;;;;;;;;;;6148541;23;20084;-51
2023/01/21 06:12:07;;;;;;;31.55;14.23;;;;;;;;;;6148730;23;20029;-51
2023/01/21 06:14:41;;;;;;;28.73;13.27;;;;;;;;;;6146291;23;20021;-53
2023/01/21 06:17:08;;;;;;;26.88;13.30;;;;;;;;;;6147351;23;20551;-55
2023/01/21 06:19:42;;;;;;;23.85;12.63;;;;;;;;;;6149308;23;20051;-53
2023/01/21 06:22:13;;;;;;;26.48;13.30;;;;;;;;;;6123385;23;20104;-53
2023/01/21 06:24:40;;;;;;;27.05;13.50;;;;;;;;;;6148253;23;20104;-59
2023/01/21 06:27:14;;;;;;;27.60;13.27;;;;;;;;;;6149098;23;20057;-59
2023/01/21 06:29:41;;;;;;;25.25;12.70;;;;;;;;;;6148704;23;20100;-59
2023/01/21 06:32:15;;;;;;;24.92;12.20;;;;;;;;;;6148293;23;20026;-59
2023/01/21 06:34:42;;;;;;;16.35;8.43;;;;;;;;;;6149732;23;20021;-58
2023/01/21 06:37:16;;;;;;;16.75;9.45;;;;;;;;;;6148005;23;20105;-59
2023/01/21 06:39:43;;;;;;;17.33;9.05;;;;;;;;;;6149330;23;20024;-59
2023/01/21 06:42:10;;;;;;;18.75;9.05;;;;;;;;;;6148592;23;20026;-46
2023/01/21 06:44:44;;;;;;;17.10;8.80;;;;;;;;;;6148269;23;20025;-60
2023/01/21 06:47:11;;;;;;;;;;;;;;;;;;6147026;23;20036;-61
2023/01/21 06:49:39;;;;;;;14.60;8.10;;;;;;;;;;6148857;23;19995;-60
2023/01/21 06:52:13;;;;;;;14.75;8.75;;;;;;;;;;6146428;23;20036;-64
2023/01/21 06:54:40;;;;;;;18.10;9.27;;;;;;;;;;6148999;23;20383;-61
2023/01/21 06:57:14;;;;;;;15.80;8.52;;;;;;;;;;6147830;23;20678;-61
2023/01/21 06:59:47;;;;;;;;;;;;;;;;;;6148556;23;20025;-61
2023/01/21 07:02:28;;;;;;;15.18;8.32;;;;;;;;;;6147618;23;20000;-54
2023/01/21 07:04:56;;;;;;;18.48;9.25;;;;;;;;;;6148647;23;20082;-69
2023/01/21 07:07:30;;;;;;;16.65;8.77;;;;;;;;;;6148580;23;20025;-69
2023/01/21 07:09:57;;;;;;;17.75;8.63;;;;;;;;;;6148622;23;20057;-68
2023/01/21 07:12:24;;;;;;;19.98;9.88;;;;;;;;;;6148203;23;20361;-69
2023/01/21 07:14:58;;;;;;;18.85;9.85;;;;;;;;;;6147530;23;20018;-69
2023/01/21 07:17:25;;;;;;;20.40;11.02;;;;;;;;;;6147757;23;20096;-69
2023/01/21 07:19:59;;;;;;;19.92;10.63;;;;;;;;;;6146169;23;20459;-53
2023/01/21 07:22:26;;;;;;;22.23;11.30;;;;;;;;;;6147176;23;20051;-72
2023/01/21 07:24:53;;;;;;;22.10;11.88;;;;;;;;;;6148054;23;20100;-72
2023/01/21 07:27:27;;;;;;;24.63;11.38;;;;;;;;;;6148213;23;20108;-72
2023/01/21 07:29:54;;;;;;;20.88;10.30;;;;;;;;;;6148095;23;20022;-71
2023/01/21 07:32:28;;;;;;;24.15;11.57;;;;;;;;;;6147406;23;20025;-71
2023/01/21 07:34:55;;;;;;;25.25;12.32;;;;;;;;;;6148829;23;20053;-69
2023/01/21 07:37:22;;;;;;;20.58;11.25;;;;;;;;;;6147695;23;20072;-70
2023/01/21 07:39:56;;;;;;;23.48;12.70;;;;;;;;;;6148686;23;20030;-71
2023/01/21 07:42:23;;;;;;;29.05;13.60;;;;;;;;;;6147531;23;20101;-71
2023/01/21 07:44:58;;;;;;;29.23;12.40;;;;;;;;;;6147983;23;20048;-70
2023/01/21 07:47:25;;;;;;;34.20;13.73;;;;;;;;;;6147486;23;20495;-70
2023/01/21 07:49:52;;;;;;;33.00;13.52;;;;;;;;;;6149124;23;20049;-70
2023/01/21 07:52:26;;;;;;;30.50;13.10;;;;;;;;;;6147103;23;20092;-71
2023/01/21 07:54:53;;;;;;;25.77;13.02;;;;;;;;;;6148010;23;20100;-71
2023/01/21 07:57:27;;;;;;;26.67;12.65;;;;;;;;;;6148363;23;20104;-70
2023/01/21 08:00:01;;;;;;;;;;;;;;;;;;6146607;23;20021;-70
2023/01/21 08:02:41;;;;;;;29.27;13.55;;;;;;;;;;6146842;23;19999;-67
2023/01/21 08:05:09;;;;;;;30.35;13.45;;;;;;;;;;6147074;23;20026;-69
2023/01/21 08:07:43;;;;;;;28.77;13.77;;;;;;;;;;6145274;23;20555;-71
2023/01/21 08:10:10;;;;;;;26.08;13.77;;;;;;;;;;6147595;23;20045;-69
2023/01/21 08:12:40;;;;;;;31.85;14.15;;;;;;;;;;6148525;23;20092;-70
2023/01/21 08:15:14;;;;;;;28.95;14.30;;;;;;;;;;6147238;23;20412;-63
2023/01/21 08:17:48;;;;;;;29.45;14.65;;;;;;;;;;6147553;23;20053;-52
2023/01/21 08:20:15;;;;;;;26.90;14.52;;;;;;;;;;6143528;23;20041;-51
2023/01/21 08:22:42;;;;;;;31.60;15.13;;;;;;;;;;6149988;23;20060;-49
2023/01/21 08:25:16;;;;;;;30.15;14.18;;;;;;;;;;6150084;23;20563;-52
2023/01/21 08:27:43;;;;;;;27.95;13.63;;;;;;;;;;6124630;23;20077;-53
2023/01/21 08:30:17;;;;;;;23.98;11.48;;;;;;;;;;6149674;23;20539;-51
2023/01/21 08:32:44;;;;;;;19.90;11.23;;;;;;;;;;6149396;23;20028;-49
2023/01/21 08:35:12;;;;;;;;;;;;;;;;;;6150701;23;20108;-54
2023/01/21 08:37:46;;;;;;;20.42;11.07;;;;;;;;;;6148832;23;20298;-52
2023/01/21 08:40:13;;;;;;;;;;;;;;;;;;6149941;23;20093;-56
2023/01/21 08:42:47;;;;;;;26.45;12.50;;;;;;;;;;6145796;23;19916;-53
2023/01/21 08:45:14;;;;;;;19.02;11.10;;;;;;;;;;6147475;23;20028;-55
2023/01/21 08:47:41;;;;;;;20.10;11.40;;;;;;;;;;6146876;23;20033;-55
2023/01/21 08:50:15;;;;;;;20.73;10.85;;;;;;;;;;6148140;23;20028;-53
2023/01/21 08:52:42;;;;;;;24.23;11.60;;;;;;;;;;6147925;23;20028;-51
2023/01/21 08:55:09;;;;;;;21.50;11.18;;;;;;;;;;6148377;23;20100;-48
2023/01/21 08:57:43;;;;;;;20.10;11.23;;;;;;;;;;6146636;23;20024;-45
2023/01/21 09:00:11;;;;;;;19.38;10.52;;;;;;;;;;6148618;23;20105;-45
2023/01/21 09:02:52;;;;;;;17.23;10.30;;;;;;;;;;6148208;23;20095;-48
2023/01/21 09:05:19;;;;;;;19.55;10.38;;;;;;;;;;6149409;23;20026;-45
2023/01/21 09:07:53;;;;;;;17.88;10.77;;;;;;;;;;6150356;23;20044;-45
2023/01/21 09:13:15;;;;;;;20.13;11.55;;;;;;;;;;6146827;23;20565;-71
2023/01/21 09:15:42;;;;;;;17.70;10.25;;;;;;;;;;6148553;23;20022;-70
2023/01/21 09:18:10;;;;;;;19.73;10.52;;;;;;;;;;6147888;23;20304;-70
2023/01/21 09:20:44;;;;;;;17.48;9.65;;;;;;;;;;6144259;23;20136;-71
2023/01/21 09:23:23;;;;;;;17.55;10.38;;;;;;;;;;6148325;23;20047;-70
2023/01/21 09:26:07;;;;;;;16.77;10.05;;;;;;;;;;6150382;23;20021;-71
2023/01/21 09:28:35;;;;;;;18.87;11.50;;;;;;;;;;6148534;23;20061;-45
2023/01/21 09:31:13;;;;;;;18.15;10.43;;;;;;;;;;6149486;23;20249;-59
2023/01/21 09:33:41;;;;;;;20.95;10.55;;;;;;;;;;6149069;23;20024;-58
2023/01/21 09:36:12;;;;;;;16.77;10.07;;;;;;;;;;6147788;23;20026;-58
2023/01/21 09:38:46;;;;;;;18.67;10.30;;;;;;;;;;6148647;23;20033;-59
2023/01/21 09:41:35;;;;;;;20.50;11.02;;;;;;;;;;6149835;23;20060;-59
2023/01/21 09:44:03;;;;;;;19.00;10.38;;;;;;;;;;6149612;23;20029;-59
2023/01/21 09:46:43;;;;;;;18.73;10.65;;;;;;;;;;6148164;23;20518;-59
2023/01/21 09:49:19;;;;;;;16.67;9.30;;;;;;;;;;6146426;23;20021;-60
2023/01/21 09:52:19;;;;;;;17.40;9.95;;;;;;;;;;6147808;23;20096;-59
2023/01/21 09:54:46;;;;;;;17.77;9.90;;;;;;;;;;6144246;23;20022;-58
2023/01/21 09:57:27;;;;;;;17.20;10.02;;;;;;;;;;6147065;23;20407;-60
2023/01/21 10:00:14;;;;;;;18.60;10.68;;;;;;;;;;6147372;23;20021;-59
2023/01/21 10:03:14;;;;;;;19.13;11.65;;;;;;;;;;6146319;23;20068;-59
2023/01/21 10:05:41;;;;;;;20.00;11.05;;;;;;;;;;6146965;23;20021;-59
2023/01/21 10:08:26;;;;;;;16.92;9.75;;;;;;;;;;6146930;23;20061;-61
2023/01/21 10:11:09;;;;;;;15.90;9.82;;;;;;;;;;6150460;23;20025;-61
2023/01/21 10:13:43;;;;;;;17.95;9.70;;;;;;;;;;6147538;23;20104;-61
2023/01/21 10:16:15;;;;;;;16.83;10.23;;;;;;;;;;6148286;23;20059;-60
2023/01/21 10:18:45;;;;;;;17.48;10.63;;;;;;;;;;6147714;23;20408;-60
2023/01/21 10:21:25;;;;;;;16.65;10.82;;;;;;;;;;6147216;23;20638;-60
2023/01/21 10:23:58;;;;;;;18.65;11.52;;;;;;;;;;6148111;23;20546;-53
2023/01/21 10:26:34;;;;;;;17.45;10.70;;;;;;;;;;6148006;23;20025;-68
2023/01/21 10:29:02;;;;;;;15.98;10.35;;;;;;;;;;6149938;23;20065;-68
2023/01/21 10:31:40;;;;;;;19.38;10.82;;;;;;;;;;6148795;23;20025;-70
2023/01/21 10:34:12;;;;;;;18.02;10.80;;;;;;;;;;6146341;23;20028;-70
2023/01/21 10:36:52;;;;;;;15.50;10.15;;;;;;;;;;6146963;23;20509;-70
2023/01/21 10:39:19;;;;;;;16.80;10.18;;;;;;;;;;6146603;23;20136;-69
2023/01/21 10:42:16;;;;;;;17.48;10.18;;;;;;;;;;6146594;23;20036;-46
2023/01/21 10:45:02;;;;;;;16.13;10.30;;;;;;;;;;6145679;23;20044;-59
2023/01/21 10:47:49;;;;;;;18.55;11.25;;;;;;;;;;6119934;23;20057;-59
2023/01/21 10:50:19;;;;;;;17.98;10.93;;;;;;;;;;6146502;23;20363;-59
2023/01/21 10:53:05;;;;;;;16.10;9.98;;;;;;;;;;6148120;23;20024;-59
2023/01/21 10:55:55;;;;;;;16.63;10.65;;;;;;;;;;6148944;23;20059;-58
2023/01/21 10:58:34;;;;;;;16.15;9.65;;;;;;;;;;6147662;23;20483;-58
2023/01/21 11:01:14;;;;;;;13.30;9.02;;;;;;;;;;6122373;23;20081;-69
2023/01/21 11:03:57;;;;;;;14.05;9.15;;;;;;;;;;6145474;23;20025;-69
2023/01/21 11:06:24;;;;;;;17.90;10.77;;;;;;;;;;6147022;23;20027;-69
2023/01/21 11:09:01;;;;;;;13.25;9.23;;;;;;;;;;6146534;23;20061;-68
2023/01/21 11:11:34;;;;;;;16.73;10.32;;;;;;;;;;6147900;23;20025;-69
2023/01/21 11:14:09;;;;;;;12.88;8.30;;;;;;;;;;6146032;23;20025;-67
2023/01/21 11:16:44;;;;;;;10.80;7.10;;;;;;;;;;6147958;23;20029;-67
2023/01/21 11:19:27;;;;;;;10.30;6.85;;;;;;;;;;6148020;23;20022;-49
2023/01/21 11:22:03;;;;;;;11.40;7.22;;;;;;;;;;6147079;23;20033;-72
2023/01/21 11:24:44;;;;;;;12.77;7.57;;;;;;;;;;6147512;23;20047;-71
2023/01/21 11:27:19;;;;;;;11.48;6.50;;;;;;;;;;6147996;23;20025;-72
2023/01/21 11:29:53;;;;;;;9.32;6.40;;;;;;;;;;6123254;23;20164;-73
2023/01/21 11:32:22;;;;;;;8.77;5.70;;;;;;;;;;6142902;23;20027;-72
2023/01/21 11:34:50;;;;;;;10.57;7.03;;;;;;;;;;6146774;23;20076;-73
2023/01/21 11:37:27;;;;;;;11.63;7.13;;;;;;;;;;6145495;23;20023;-73
2023/01/21 11:39:55;;;;;;;10.95;5.97;;;;;;;;;;6143377;23;20100;-61
2023/01/21 11:42:29;;;;;;;8.10;5.13;;;;;;;;;;6144841;23;20104;-61
2023/01/21 11:44:56;;;;;;;;;;;;;;;;;;6145983;23;20017;-60
2023/01/21 11:47:35;;;;;;;8.93;5.72;;;;;;;;;;6147991;23;19991;-61
2023/01/21 11:50:10;;;;;;;8.95;5.95;;;;;;;;;;6121182;23;20022;-60
2023/01/21 11:52:44;;;;;;;8.60;6.10;;;;;;;;;;6146373;23;20029;-61
2023/01/21 11:55:23;;;;;;;10.73;6.28;;;;;;;;;;6148441;23;20056;-57
2023/01/21 11:57:57;;;;;;;8.73;5.68;;;;;;;;;;6147268;23;20025;-60
2023/01/21 12:00:39;;;;;;;8.23;5.72;;;;;;;;;;6147476;23;20064;-61
2023/01/21 12:03:13;;;;;;;;;;;;;;;;;;6146729;23;20455;-61
2023/01/21 12:05:44;;;;;;;7.25;4.90;;;;;;;;;;6147474;23;20343;-61
2023/01/21 12:08:25;;;;;;;7.28;4.63;;;;;;;;;;6146865;23;20096;-61
2023/01/21 12:11:00;;;;;;;7.15;5.20;;;;;;;;;;6147548;23;20103;-60
2023/01/21 12:13:28;;;;;;;8.50;5.22;;;;;;;;;;6145981;23;20049;-58
2023/01/21 12:16:08;;;;;;;7.10;4.97;;;;;;;;;;6147934;23;20027;-49
2023/01/21 12:18:53;;;;;;;10.32;5.47;;;;;;;;;;6147389;23;20057;-50
2023/01/21 12:21:45;;;;;;;6.72;4.45;;;;;;;;;;6146823;23;20100;-47
2023/01/21 12:24:13;;;;;;;8.43;5.57;;;;;;;;;;6147386;23;20029;-46
2023/01/21 12:26:58;;;;;;;10.10;6.53;;;;;;;;;;6142925;23;20104;-48
2023/01/21 12:29:28;;;;;;;9.80;6.35;;;;;;;;;;6148203;23;20072;-46
2023/01/21 12:32:02;;;;;;;10.57;6.38;;;;;;;;;;6147358;23;20104;-50
2023/01/21 12:34:45;;;;;;;9.07;5.82;;;;;;;;;;6144726;23;20049;-49
2023/01/21 12:37:14;;;;;;;9.20;5.90;;;;;;;;;;6119994;23;20108;-48
2023/01/21 12:39:49;;;;;;;10.43;5.82;;;;;;;;;;6147538;23;20070;-47
2023/01/21 12:42:30;;;;;;;9.50;6.03;;;;;;;;;;6145917;23;20036;-47
2023/01/21 12:45:06;;;;;;;8.82;5.80;;;;;;;;;;6145537;23;20049;-51
2023/01/21 12:47:39;;;;;;;8.13;5.22;;;;;;;;;;6143898;23;20021;-48
2023/01/21 12:50:32;;;;;;;9.57;6.70;;;;;;;;;;6144640;23;20021;-60
2023/01/21 12:52:59;;;;;;;8.10;5.15;;;;;;;;;;6143368;23;20021;-53
2023/01/21 12:55:46;;;;;;;9.32;5.65;;;;;;;;;;6144182;23;20104;-51
2023/01/21 12:58:15;;;;;;;8.82;5.32;;;;;;;;;;6144581;23;20104;-55
2023/01/21 13:00:50;;;;;;;10.13;6.20;;;;;;;;;;6143180;23;20043;-55
2023/01/21 13:03:28;;;;;;;8.93;6.15;;;;;;;;;;6143608;23;20035;-56
2023/01/21 13:06:05;;;;;;;8.80;6.00;;;;;;;;;;6143383;23;20542;-56
2023/01/21 13:08:55;;;;;;;10.20;6.87;;;;;;;;;;6143401;23;20049;-60
2023/01/21 13:11:32;;;;;;;10.88;7.18;;;;;;;;;;6144347;23;20045;-60
2023/01/21 13:14:08;;;;;;;11.50;7.50;;;;;;;;;;6119910;23;20121;-60
2023/01/21 13:16:53;;;;;;;10.80;7.28;;;;;;;;;;6145328;23;20026;-60
2023/01/21 13:19:21;;;;;;;10.95;7.15;;;;;;;;;;6146452;23;20388;-61
2023/01/21 13:22:03;;;;;;;12.38;8.10;;;;;;;;;;6143718;23;20021;-60
2023/01/21 13:24:55;;;;;;;12.73;7.65;;;;;;;;;;6142961;23;20064;-60
2023/01/21 13:27:35;;;;;;;12.25;6.75;;;;;;;;;;6145119;23;20546;-61
2023/01/21 13:30:13;;;;;;;10.90;7.50;;;;;;;;;;6144229;23;20045;-66
2023/01/21 13:32:44;;;;;;;12.10;7.57;;;;;;;;;;6146017;23;20036;-65
2023/01/21 13:35:18;;;;;;;9.35;5.68;;;;;;;;;;6145943;23;20758;-66
2023/01/21 13:38:04;;;;;;;10.32;6.68;;;;;;;;;;6142977;23;20483;-66
2023/01/21 13:40:45;;;;;;;14.02;7.10;;;;;;;;;;6144170;23;20029;-66
2023/01/21 13:43:18;;;;;;;10.55;6.65;;;;;;;;;;6145377;23;20133;-66
2023/01/21 13:45:58;;;;;;;12.60;7.07;;;;;;;;;;6143556;23;20459;-55
2023/01/21 13:48:42;;;;;;;9.20;6.18;;;;;;;;;;6141704;23;20018;-61
2023/01/21 13:51:40;;;;;;;10.25;6.32;;;;;;;;;;6142814;23;20421;-62
2023/01/21 13:54:10;;;;;;;9.68;6.60;;;;;;;;;;6144009;23;20041;-60
2023/01/21 13:57:02;;;;;;;10.00;6.80;;;;;;;;;;6144908;23;20083;-61
2023/01/21 13:59:30;;;;;;;9.32;6.63;;;;;;;;;;6120351;23;20766;-60
2023/01/21 14:02:15;;;;;;;9.40;6.40;;;;;;;;;;6144344;23;20103;-60
2023/01/21 14:04:47;;;;;;;10.48;6.90;;;;;;;;;;6147066;23;20031;-60
2023/01/21 14:07:27;;;;;;;12.43;6.93;;;;;;;;;;6148615;23;20021;-60
2023/01/21 14:10:00;;;;;;;10.07;6.78;;;;;;;;;;6148179;23;20409;-61
2023/01/21 14:12:40;;;;;;;10.05;6.85;;;;;;;;;;6146783;23;20128;-61
2023/01/21 14:15:25;;;;;;;11.23;7.60;;;;;;;;;;6148355;23;20064;-61
2023/01/21 14:18:06;;;;;;;11.40;7.55;;;;;;;;;;6146208;23;20022;-61
2023/01/21 14:20:52;;;;;;;10.95;7.35;;;;;;;;;;6148173;23;20471;-60
2023/01/21 14:23:45;;;;;;;11.35;7.40;;;;;;;;;;6144992;23;20571;-54
2023/01/21 14:26:17;;;;;;;9.05;6.75;;;;;;;;;;6148948;23;20064;-58
2023/01/21 14:29:05;;;;;;;8.93;6.97;;;;;;;;;;6148268;23;20052;-58
2023/01/21 14:31:35;;;;;;;11.77;7.00;;;;;;;;;;6147611;23;20037;-57
2023/01/21 14:34:15;;;;;;;11.82;6.97;;;;;;;;;;6147097;23;20076;-58
2023/01/21 14:36:48;;;;;;;10.10;7.20;;;;;;;;;;6144347;23;20036;-56
2023/01/21 14:39:41;;;;;;;10.95;6.93;;;;;;;;;;6146187;23;20021;-59
2023/01/21 14:42:09;;;;;;;11.45;7.20;;;;;;;;;;6148274;23;20128;-60
2023/01/21 14:44:49;;;;;;;11.60;6.90;;;;;;;;;;6147544;23;20347;-57
2023/01/21 14:47:23;;;;;;;10.45;6.47;;;;;;;;;;6147066;23;20103;-59
2023/01/21 14:49:58;;;;;;;10.82;6.80;;;;;;;;;;6147493;23;20021;-57
2023/01/21 14:52:28;;;;;;;10.82;6.82;;;;;;;;;;6148354;23;20501;-58
2023/01/21 14:54:55;;;;;;;10.27;6.85;;;;;;;;;;6147729;23;20033;-58
2023/01/21 14:57:31;;;;;;;10.55;7.05;;;;;;;;;;6122214;23;20072;-59
2023/01/21 15:00:12;;;;;;;10.93;7.72;;;;;;;;;;6148983;23;20077;-57
2023/01/21 15:02:54;;;;;;;10.27;6.88;;;;;;;;;;6115504;23;20108;-66
2023/01/21 15:05:35;;;;;;;11.55;7.55;;;;;;;;;;6118126;23;20371;-66
2023/01/21 15:08:21;;;;;;;11.20;7.55;;;;;;;;;;6116200;23;20506;-66
2023/01/21 15:10:58;;;;;;;11.05;7.45;;;;;;;;;;6118800;23;20022;-66
2023/01/21 15:13:28;;;;;;;12.90;8.05;;;;;;;;;;6118301;23;20089;-66